sensor_id;sensor_type;location;lat;lon;timestamp;P1;durP1;ratioP1;P2;durP2;ratioP2
59468;SDS011;45277;52.768;18.262;2022-09-09T00:01:14;11.82;;;7.63;;
59468;SDS011;45277;52.768;18.262;2022-09-09T00:03:05;13.00;;;6.97;;
59468;SDS011;45277;52.768;18.262;2022-09-09T00:10:39;10.82;;;7.05;;
59468;SDS011;45277;52.768;18.262;2022-09-09T00:13:48;11.05;;;7.50;;
59468;SDS011;45277;52.768;18.262;2022-09-09T00:15:28;10.75;;;7.57;;
59468;SDS011;45277;52.768;18.262;2022-09-09T00:17:14;12.60;;;7.50;;
59468;SDS011;45277;52.768;18.262;2022-09-09T00:20:43;12.07;;;7.38;;
59468;SDS011;45277;52.768;18.262;2022-09-09T00:22:23;11.73;;;8.15;;
59468;SDS011;45277;52.768;18.262;2022-09-09T00:23:58;10.80;;;7.70;;
59468;SDS011;45277;52.768;18.262;2022-09-09T00:27:11;12.82;;;8.15;;
59468;SDS011;45277;52.768;18.262;2022-09-09T00:30:53;11.95;;;8.15;;
59468;SDS011;45277;52.768;18.262;2022-09-09T00:32:42;12.18;;;7.50;;
59468;SDS011;45277;52.768;18.262;2022-09-09T00:34:19;11.65;;;8.07;;
59468;SDS011;45277;52.768;18.262;2022-09-09T00:35:54;13.32;;;7.80;;
59468;SDS011;45277;52.768;18.262;2022-09-09T00:37:28;15.60;;;8.48;;
59468;SDS011;45277;52.768;18.262;2022-09-09T00:39:08;12.10;;;8.50;;
59468;SDS011;45277;52.768;18.262;2022-09-09T00:40:50;13.15;;;8.40;;
59468;SDS011;45277;52.768;18.262;2022-09-09T00:47:51;12.75;;;8.38;;
59468;SDS011;45277;52.768;18.262;2022-09-09T00:56:37;12.20;;;8.00;;
59468;SDS011;45277;52.768;18.262;2022-09-09T00:58:16;13.65;;;8.57;;
59468;SDS011;45277;52.768;18.262;2022-09-09T00:59:50;11.88;;;8.52;;
59468;SDS011;45277;52.768;18.262;2022-09-09T01:01:23;18.70;;;9.20;;
59468;SDS011;45277;52.768;18.262;2022-09-09T01:04:50;13.18;;;8.57;;
59468;SDS011;45277;52.768;18.262;2022-09-09T01:06:26;13.45;;;9.00;;
59468;SDS011;45277;52.768;18.262;2022-09-09T01:09:45;13.95;;;8.40;;
59468;SDS011;45277;52.768;18.262;2022-09-09T01:11:33;12.13;;;8.32;;
59468;SDS011;45277;52.768;18.262;2022-09-09T01:13:22;13.32;;;8.23;;
59468;SDS011;45277;52.768;18.262;2022-09-09T01:15:07;12.40;;;7.95;;
59468;SDS011;45277;52.768;18.262;2022-09-09T01:16:48;13.48;;;8.38;;
59468;SDS011;45277;52.768;18.262;2022-09-09T01:18:26;14.45;;;8.50;;
59468;SDS011;45277;52.768;18.262;2022-09-09T01:21:45;12.05;;;8.13;;
59468;SDS011;45277;52.768;18.262;2022-09-09T01:23:36;12.73;;;8.23;;
59468;SDS011;45277;52.768;18.262;2022-09-09T01:26:59;14.60;;;8.68;;
59468;SDS011;45277;52.768;18.262;2022-09-09T01:28:33;13.93;;;8.07;;
59468;SDS011;45277;52.768;18.262;2022-09-09T01:30:15;12.07;;;8.32;;
59468;SDS011;45277;52.768;18.262;2022-09-09T01:31:53;16.73;;;8.85;;
59468;SDS011;45277;52.768;18.262;2022-09-09T01:33:28;14.02;;;8.88;;
59468;SDS011;45277;52.768;18.262;2022-09-09T01:34:59;14.38;;;8.82;;
59468;SDS011;45277;52.768;18.262;2022-09-09T01:36:35;11.70;;;8.57;;
59468;SDS011;45277;52.768;18.262;2022-09-09T01:38:20;14.73;;;8.88;;
59468;SDS011;45277;52.768;18.262;2022-09-09T01:39:55;15.75;;;9.38;;
59468;SDS011;45277;52.768;18.262;2022-09-09T01:41:26;13.68;;;8.77;;
59468;SDS011;45277;52.768;18.262;2022-09-09T01:43:00;14.80;;;9.23;;
59468;SDS011;45277;52.768;18.262;2022-09-09T01:44:33;13.68;;;8.55;;
59468;SDS011;45277;52.768;18.262;2022-09-09T01:46:06;11.60;;;8.50;;
59468;SDS011;45277;52.768;18.262;2022-09-09T01:47:38;14.25;;;8.82;;
59468;SDS011;45277;52.768;18.262;2022-09-09T01:49:10;14.38;;;8.60;;
59468;SDS011;45277;52.768;18.262;2022-09-09T01:50:43;13.43;;;8.75;;
59468;SDS011;45277;52.768;18.262;2022-09-09T01:52:15;14.30;;;9.10;;
59468;SDS011;45277;52.768;18.262;2022-09-09T01:53:47;14.10;;;8.63;;
59468;SDS011;45277;52.768;18.262;2022-09-09T01:55:23;15.90;;;8.57;;
59468;SDS011;45277;52.768;18.262;2022-09-09T02:00:43;10.68;;;7.68;;
59468;SDS011;45277;52.768;18.262;2022-09-09T02:02:28;12.43;;;8.45;;
59468;SDS011;45277;52.768;18.262;2022-09-09T02:04:03;13.15;;;9.13;;
59468;SDS011;45277;52.768;18.262;2022-09-09T02:05:49;12.07;;;8.30;;
59468;SDS011;45277;52.768;18.262;2022-09-09T02:07:42;12.55;;;8.80;;
59468;SDS011;45277;52.768;18.262;2022-09-09T02:09:23;12.35;;;8.45;;
59468;SDS011;45277;52.768;18.262;2022-09-09T02:12:34;17.35;;;9.57;;
59468;SDS011;45277;52.768;18.262;2022-09-09T02:14:17;13.45;;;8.73;;
59468;SDS011;45277;52.768;18.262;2022-09-09T02:16:00;12.60;;;8.82;;
59468;SDS011;45277;52.768;18.262;2022-09-09T02:17:41;15.13;;;9.55;;
59468;SDS011;45277;52.768;18.262;2022-09-09T02:19:22;14.40;;;8.93;;
59468;SDS011;45277;52.768;18.262;2022-09-09T02:21:06;12.27;;;8.77;;
59468;SDS011;45277;52.768;18.262;2022-09-09T02:22:39;14.45;;;9.50;;
59468;SDS011;45277;52.768;18.262;2022-09-09T02:24:15;15.25;;;9.68;;
59468;SDS011;45277;52.768;18.262;2022-09-09T02:25:48;16.90;;;9.35;;
59468;SDS011;45277;52.768;18.262;2022-09-09T02:27:22;14.15;;;9.70;;
59468;SDS011;45277;52.768;18.262;2022-09-09T02:28:55;12.85;;;9.70;;
59468;SDS011;45277;52.768;18.262;2022-09-09T02:30:29;14.75;;;9.43;;
59468;SDS011;45277;52.768;18.262;2022-09-09T02:32:12;13.65;;;9.57;;
59468;SDS011;45277;52.768;18.262;2022-09-09T02:33:51;13.40;;;9.30;;
59468;SDS011;45277;52.768;18.262;2022-09-09T02:35:26;14.77;;;9.18;;
59468;SDS011;45277;52.768;18.262;2022-09-09T02:37:03;13.60;;;10.02;;
59468;SDS011;45277;52.768;18.262;2022-09-09T02:38:42;12.00;;;9.57;;
59468;SDS011;45277;52.768;18.262;2022-09-09T02:40:23;15.43;;;9.13;;
59468;SDS011;45277;52.768;18.262;2022-09-09T02:42:10;17.92;;;9.90;;
59468;SDS011;45277;52.768;18.262;2022-09-09T02:43:43;13.93;;;10.10;;
59468;SDS011;45277;52.768;18.262;2022-09-09T02:45:19;16.20;;;10.27;;
59468;SDS011;45277;52.768;18.262;2022-09-09T02:47:05;17.02;;;10.13;;
59468;SDS011;45277;52.768;18.262;2022-09-09T02:51:06;16.02;;;9.73;;
59468;SDS011;45277;52.768;18.262;2022-09-09T02:54:48;14.82;;;9.60;;
59468;SDS011;45277;52.768;18.262;2022-09-09T02:56:25;13.15;;;9.60;;
59468;SDS011;45277;52.768;18.262;2022-09-09T02:58:01;15.57;;;9.75;;
59468;SDS011;45277;52.768;18.262;2022-09-09T02:59:37;15.27;;;9.57;;
59468;SDS011;45277;52.768;18.262;2022-09-09T03:01:09;14.38;;;9.82;;
59468;SDS011;45277;52.768;18.262;2022-09-09T03:02:42;14.93;;;9.77;;
59468;SDS011;45277;52.768;18.262;2022-09-09T03:04:22;15.30;;;10.75;;
59468;SDS011;45277;52.768;18.262;2022-09-09T03:05:55;14.75;;;10.43;;
59468;SDS011;45277;52.768;18.262;2022-09-09T03:07:27;16.25;;;10.55;;
59468;SDS011;45277;52.768;18.262;2022-09-09T03:09:02;14.00;;;10.63;;
59468;SDS011;45277;52.768;18.262;2022-09-09T03:10:33;14.95;;;10.50;;
59468;SDS011;45277;52.768;18.262;2022-09-09T03:12:06;13.98;;;10.07;;
59468;SDS011;45277;52.768;18.262;2022-09-09T03:13:38;15.40;;;10.95;;
59468;SDS011;45277;52.768;18.262;2022-09-09T03:15:10;16.00;;;11.07;;
59468;SDS011;45277;52.768;18.262;2022-09-09T03:16:41;14.77;;;9.90;;
59468;SDS011;45277;52.768;18.262;2022-09-09T03:18:16;14.90;;;9.98;;
59468;SDS011;45277;52.768;18.262;2022-09-09T03:19:47;16.77;;;10.90;;
59468;SDS011;45277;52.768;18.262;2022-09-09T03:21:20;15.10;;;11.60;;
59468;SDS011;45277;52.768;18.262;2022-09-09T03:22:54;17.77;;;10.52;;
59468;SDS011;45277;52.768;18.262;2022-09-09T03:24:27;15.70;;;10.85;;
59468;SDS011;45277;52.768;18.262;2022-09-09T03:26:00;15.02;;;10.80;;
59468;SDS011;45277;52.768;18.262;2022-09-09T03:27:31;16.10;;;10.55;;
59468;SDS011;45277;52.768;18.262;2022-09-09T03:29:04;15.85;;;11.13;;
59468;SDS011;45277;52.768;18.262;2022-09-09T03:30:39;16.42;;;10.68;;
59468;SDS011;45277;52.768;18.262;2022-09-09T03:32:10;14.68;;;10.98;;
59468;SDS011;45277;52.768;18.262;2022-09-09T03:33:42;15.38;;;10.57;;
59468;SDS011;45277;52.768;18.262;2022-09-09T03:35:14;16.35;;;10.93;;
59468;SDS011;45277;52.768;18.262;2022-09-09T03:36:48;19.23;;;11.55;;
59468;SDS011;45277;52.768;18.262;2022-09-09T03:38:20;15.88;;;11.15;;
59468;SDS011;45277;52.768;18.262;2022-09-09T03:39:51;14.88;;;11.50;;
59468;SDS011;45277;52.768;18.262;2022-09-09T03:41:25;17.05;;;11.02;;
59468;SDS011;45277;52.768;18.262;2022-09-09T03:42:57;14.55;;;11.68;;
59468;SDS011;45277;52.768;18.262;2022-09-09T03:44:28;14.07;;;10.65;;
59468;SDS011;45277;52.768;18.262;2022-09-09T03:46:08;16.65;;;11.15;;
59468;SDS011;45277;52.768;18.262;2022-09-09T03:47:40;16.23;;;11.73;;
59468;SDS011;45277;52.768;18.262;2022-09-09T03:49:12;18.38;;;12.02;;
59468;SDS011;45277;52.768;18.262;2022-09-09T03:50:48;17.88;;;11.75;;
59468;SDS011;45277;52.768;18.262;2022-09-09T03:52:21;17.08;;;11.23;;
59468;SDS011;45277;52.768;18.262;2022-09-09T03:53:57;18.15;;;12.30;;
59468;SDS011;45277;52.768;18.262;2022-09-09T03:55:30;17.13;;;12.02;;
59468;SDS011;45277;52.768;18.262;2022-09-09T03:57:03;18.50;;;12.25;;
59468;SDS011;45277;52.768;18.262;2022-09-09T03:58:37;17.90;;;12.40;;
59468;SDS011;45277;52.768;18.262;2022-09-09T04:00:09;16.77;;;11.77;;
59468;SDS011;45277;52.768;18.262;2022-09-09T04:01:42;18.67;;;12.13;;
59468;SDS011;45277;52.768;18.262;2022-09-09T04:03:16;17.55;;;12.23;;
59468;SDS011;45277;52.768;18.262;2022-09-09T04:04:47;17.70;;;12.50;;
59468;SDS011;45277;52.768;18.262;2022-09-09T04:06:19;18.05;;;12.45;;
59468;SDS011;45277;52.768;18.262;2022-09-09T04:07:52;18.35;;;12.68;;
59468;SDS011;45277;52.768;18.262;2022-09-09T04:09:23;21.42;;;13.18;;
59468;SDS011;45277;52.768;18.262;2022-09-09T04:10:55;18.55;;;13.23;;
59468;SDS011;45277;52.768;18.262;2022-09-09T04:12:36;19.25;;;13.10;;
59468;SDS011;45277;52.768;18.262;2022-09-09T04:14:09;16.92;;;12.85;;
59468;SDS011;45277;52.768;18.262;2022-09-09T04:15:41;21.50;;;13.23;;
59468;SDS011;45277;52.768;18.262;2022-09-09T04:17:14;17.83;;;12.45;;
59468;SDS011;45277;52.768;18.262;2022-09-09T04:18:45;20.33;;;13.45;;
59468;SDS011;45277;52.768;18.262;2022-09-09T04:20:18;18.17;;;12.15;;
59468;SDS011;45277;52.768;18.262;2022-09-09T04:21:56;19.17;;;13.18;;
59468;SDS011;45277;52.768;18.262;2022-09-09T04:23:28;18.60;;;13.18;;
59468;SDS011;45277;52.768;18.262;2022-09-09T04:25:02;18.13;;;12.77;;
59468;SDS011;45277;52.768;18.262;2022-09-09T04:26:47;23.02;;;14.07;;
59468;SDS011;45277;52.768;18.262;2022-09-09T04:28:20;19.63;;;12.93;;
59468;SDS011;45277;52.768;18.262;2022-09-09T04:29:53;19.52;;;12.80;;
59468;SDS011;45277;52.768;18.262;2022-09-09T04:31:27;18.45;;;13.45;;
59468;SDS011;45277;52.768;18.262;2022-09-09T04:32:58;17.48;;;13.30;;
59468;SDS011;45277;52.768;18.262;2022-09-09T04:34:30;17.40;;;13.13;;
59468;SDS011;45277;52.768;18.262;2022-09-09T04:36:01;18.98;;;13.32;;
59468;SDS011;45277;52.768;18.262;2022-09-09T04:37:33;15.70;;;12.15;;
59468;SDS011;45277;52.768;18.262;2022-09-09T04:39:07;18.30;;;13.48;;
59468;SDS011;45277;52.768;18.262;2022-09-09T04:40:43;17.95;;;13.32;;
59468;SDS011;45277;52.768;18.262;2022-09-09T04:42:20;17.95;;;12.90;;
59468;SDS011;45277;52.768;18.262;2022-09-09T04:43:52;18.15;;;13.30;;
59468;SDS011;45277;52.768;18.262;2022-09-09T04:45:24;19.83;;;12.65;;
59468;SDS011;45277;52.768;18.262;2022-09-09T04:46:58;20.45;;;13.55;;
59468;SDS011;45277;52.768;18.262;2022-09-09T04:48:29;19.77;;;13.13;;
59468;SDS011;45277;52.768;18.262;2022-09-09T04:50:08;17.77;;;12.93;;
59468;SDS011;45277;52.768;18.262;2022-09-09T04:51:40;20.88;;;12.93;;
59468;SDS011;45277;52.768;18.262;2022-09-09T04:53:11;19.83;;;12.82;;
59468;SDS011;45277;52.768;18.262;2022-09-09T04:54:43;18.98;;;13.07;;
59468;SDS011;45277;52.768;18.262;2022-09-09T04:56:16;18.55;;;12.70;;
59468;SDS011;45277;52.768;18.262;2022-09-09T04:57:49;16.77;;;13.25;;
59468;SDS011;45277;52.768;18.262;2022-09-09T04:59:21;16.67;;;12.13;;
59468;SDS011;45277;52.768;18.262;2022-09-09T05:00:52;17.52;;;12.75;;
59468;SDS011;45277;52.768;18.262;2022-09-09T05:02:27;14.32;;;11.57;;
59468;SDS011;45277;52.768;18.262;2022-09-09T05:03:59;18.42;;;12.10;;
59468;SDS011;45277;52.768;18.262;2022-09-09T05:05:33;17.88;;;12.23;;
59468;SDS011;45277;52.768;18.262;2022-09-09T05:07:05;16.67;;;12.68;;
59468;SDS011;45277;52.768;18.262;2022-09-09T05:08:37;17.13;;;12.32;;
59468;SDS011;45277;52.768;18.262;2022-09-09T05:10:10;18.77;;;13.75;;
59468;SDS011;45277;52.768;18.262;2022-09-09T05:11:47;19.13;;;13.50;;
59468;SDS011;45277;52.768;18.262;2022-09-09T05:13:20;21.10;;;14.05;;
59468;SDS011;45277;52.768;18.262;2022-09-09T05:14:54;18.77;;;12.82;;
59468;SDS011;45277;52.768;18.262;2022-09-09T05:16:26;17.98;;;13.13;;
59468;SDS011;45277;52.768;18.262;2022-09-09T05:18:07;18.58;;;12.95;;
59468;SDS011;45277;52.768;18.262;2022-09-09T05:19:38;18.70;;;14.00;;
59468;SDS011;45277;52.768;18.262;2022-09-09T05:21:10;16.40;;;12.85;;
59468;SDS011;45277;52.768;18.262;2022-09-09T05:22:44;22.00;;;12.75;;
59468;SDS011;45277;52.768;18.262;2022-09-09T05:24:16;17.92;;;12.85;;
59468;SDS011;45277;52.768;18.262;2022-09-09T05:25:59;18.67;;;12.48;;
59468;SDS011;45277;52.768;18.262;2022-09-09T05:27:31;20.10;;;12.57;;
59468;SDS011;45277;52.768;18.262;2022-09-09T05:29:05;18.33;;;12.65;;
59468;SDS011;45277;52.768;18.262;2022-09-09T05:30:37;20.50;;;12.20;;
59468;SDS011;45277;52.768;18.262;2022-09-09T05:32:15;17.35;;;11.95;;
59468;SDS011;45277;52.768;18.262;2022-09-09T05:33:48;17.77;;;11.57;;
59468;SDS011;45277;52.768;18.262;2022-09-09T05:35:26;19.13;;;12.15;;
59468;SDS011;45277;52.768;18.262;2022-09-09T05:37:00;17.30;;;12.00;;
59468;SDS011;45277;52.768;18.262;2022-09-09T05:38:33;18.63;;;12.57;;
59468;SDS011;45277;52.768;18.262;2022-09-09T05:40:05;16.10;;;12.35;;
59468;SDS011;45277;52.768;18.262;2022-09-09T05:41:37;18.17;;;11.77;;
59468;SDS011;45277;52.768;18.262;2022-09-09T05:43:09;20.80;;;13.27;;
59468;SDS011;45277;52.768;18.262;2022-09-09T05:44:42;18.08;;;12.68;;
59468;SDS011;45277;52.768;18.262;2022-09-09T05:46:17;20.67;;;13.77;;
59468;SDS011;45277;52.768;18.262;2022-09-09T05:47:51;20.90;;;13.48;;
59468;SDS011;45277;52.768;18.262;2022-09-09T05:49:27;19.25;;;12.75;;
59468;SDS011;45277;52.768;18.262;2022-09-09T05:50:59;23.95;;;13.77;;
59468;SDS011;45277;52.768;18.262;2022-09-09T05:52:32;21.20;;;14.13;;
59468;SDS011;45277;52.768;18.262;2022-09-09T05:54:04;25.23;;;14.00;;
59468;SDS011;45277;52.768;18.262;2022-09-09T05:55:42;20.40;;;14.20;;
59468;SDS011;45277;52.768;18.262;2022-09-09T05:57:16;22.75;;;13.80;;
59468;SDS011;45277;52.768;18.262;2022-09-09T05:58:51;24.65;;;14.43;;
59468;SDS011;45277;52.768;18.262;2022-09-09T06:00:26;23.50;;;13.55;;
59468;SDS011;45277;52.768;18.262;2022-09-09T06:01:58;23.95;;;15.05;;
59468;SDS011;45277;52.768;18.262;2022-09-09T06:03:31;21.98;;;13.95;;
59468;SDS011;45277;52.768;18.262;2022-09-09T06:05:06;21.38;;;14.20;;
59468;SDS011;45277;52.768;18.262;2022-09-09T06:06:41;23.33;;;14.13;;
59468;SDS011;45277;52.768;18.262;2022-09-09T06:08:16;24.08;;;15.10;;
59468;SDS011;45277;52.768;18.262;2022-09-09T06:09:48;22.95;;;15.00;;
59468;SDS011;45277;52.768;18.262;2022-09-09T06:11:24;23.08;;;15.32;;
59468;SDS011;45277;52.768;18.262;2022-09-09T06:12:57;24.20;;;15.88;;
59468;SDS011;45277;52.768;18.262;2022-09-09T06:14:30;28.02;;;15.07;;
59468;SDS011;45277;52.768;18.262;2022-09-09T06:16:11;21.60;;;15.05;;
59468;SDS011;45277;52.768;18.262;2022-09-09T06:17:53;26.58;;;15.27;;
59468;SDS011;45277;52.768;18.262;2022-09-09T06:19:27;23.02;;;14.82;;
59468;SDS011;45277;52.768;18.262;2022-09-09T06:21:05;23.35;;;14.38;;
59468;SDS011;45277;52.768;18.262;2022-09-09T06:22:40;24.73;;;14.55;;
59468;SDS011;45277;52.768;18.262;2022-09-09T06:24:18;24.95;;;15.25;;
59468;SDS011;45277;52.768;18.262;2022-09-09T06:25:51;25.67;;;16.13;;
59468;SDS011;45277;52.768;18.262;2022-09-09T06:27:32;23.90;;;15.80;;
59468;SDS011;45277;52.768;18.262;2022-09-09T06:29:04;29.58;;;16.00;;
59468;SDS011;45277;52.768;18.262;2022-09-09T06:30:38;30.98;;;15.77;;
59468;SDS011;45277;52.768;18.262;2022-09-09T06:32:11;29.17;;;17.50;;
59468;SDS011;45277;52.768;18.262;2022-09-09T06:33:42;29.00;;;15.40;;
59468;SDS011;45277;52.768;18.262;2022-09-09T06:35:15;28.63;;;16.13;;
59468;SDS011;45277;52.768;18.262;2022-09-09T06:36:46;32.78;;;17.17;;
59468;SDS011;45277;52.768;18.262;2022-09-09T06:38:19;32.72;;;16.67;;
59468;SDS011;45277;52.768;18.262;2022-09-09T06:39:52;27.67;;;16.23;;
59468;SDS011;45277;52.768;18.262;2022-09-09T06:41:26;29.83;;;16.70;;
59468;SDS011;45277;52.768;18.262;2022-09-09T06:43:00;34.35;;;18.02;;
59468;SDS011;45277;52.768;18.262;2022-09-09T06:44:33;33.50;;;17.60;;
59468;SDS011;45277;52.768;18.262;2022-09-09T06:46:05;33.90;;;17.50;;
59468;SDS011;45277;52.768;18.262;2022-09-09T06:47:42;27.73;;;17.40;;
59468;SDS011;45277;52.768;18.262;2022-09-09T06:49:13;32.30;;;17.90;;
59468;SDS011;45277;52.768;18.262;2022-09-09T06:50:46;33.67;;;16.77;;
59468;SDS011;45277;52.768;18.262;2022-09-09T06:52:19;30.33;;;17.33;;
59468;SDS011;45277;52.768;18.262;2022-09-09T06:53:53;32.92;;;17.50;;
59468;SDS011;45277;52.768;18.262;2022-09-09T06:55:29;33.67;;;17.30;;
59468;SDS011;45277;52.768;18.262;2022-09-09T06:57:00;34.83;;;17.88;;
59468;SDS011;45277;52.768;18.262;2022-09-09T06:58:38;29.38;;;17.10;;
59468;SDS011;45277;52.768;18.262;2022-09-09T07:00:14;34.10;;;17.38;;
59468;SDS011;45277;52.768;18.262;2022-09-09T07:01:47;37.72;;;18.73;;
59468;SDS011;45277;52.768;18.262;2022-09-09T07:06:43;33.03;;;17.85;;
59468;SDS011;45277;52.768;18.262;2022-09-09T07:08:15;32.65;;;18.27;;
59468;SDS011;45277;52.768;18.262;2022-09-09T07:09:53;33.13;;;17.77;;
59468;SDS011;45277;52.768;18.262;2022-09-09T07:11:29;34.90;;;18.88;;
59468;SDS011;45277;52.768;18.262;2022-09-09T07:13:05;39.47;;;19.63;;
59468;SDS011;45277;52.768;18.262;2022-09-09T07:14:39;35.83;;;18.70;;
59468;SDS011;45277;52.768;18.262;2022-09-09T07:16:13;35.15;;;17.55;;
59468;SDS011;45277;52.768;18.262;2022-09-09T07:17:46;30.40;;;16.27;;
59468;SDS011;45277;52.768;18.262;2022-09-09T07:19:24;29.60;;;15.93;;
59468;SDS011;45277;52.768;18.262;2022-09-09T07:20:57;37.00;;;15.38;;
59468;SDS011;45277;52.768;18.262;2022-09-09T07:22:32;32.95;;;16.50;;
59468;SDS011;45277;52.768;18.262;2022-09-09T07:24:05;33.20;;;16.33;;
59468;SDS011;45277;52.768;18.262;2022-09-09T07:25:46;30.88;;;16.50;;
59468;SDS011;45277;52.768;18.262;2022-09-09T07:27:23;33.33;;;16.33;;
59468;SDS011;45277;52.768;18.262;2022-09-09T07:28:57;29.58;;;17.40;;
59468;SDS011;45277;52.768;18.262;2022-09-09T07:30:35;37.35;;;17.15;;
59468;SDS011;45277;52.768;18.262;2022-09-09T07:32:08;32.25;;;16.55;;
59468;SDS011;45277;52.768;18.262;2022-09-09T07:33:40;40.30;;;18.35;;
59468;SDS011;45277;52.768;18.262;2022-09-09T07:35:12;33.33;;;17.85;;
59468;SDS011;45277;52.768;18.262;2022-09-09T07:36:43;37.38;;;18.13;;
59468;SDS011;45277;52.768;18.262;2022-09-09T07:38:18;37.65;;;17.95;;
59468;SDS011;45277;52.768;18.262;2022-09-09T07:39:51;34.42;;;17.67;;
59468;SDS011;45277;52.768;18.262;2022-09-09T07:41:28;39.28;;;17.45;;
59468;SDS011;45277;52.768;18.262;2022-09-09T07:43:06;31.33;;;16.67;;
59468;SDS011;45277;52.768;18.262;2022-09-09T07:44:39;36.78;;;18.23;;
59468;SDS011;45277;52.768;18.262;2022-09-09T07:46:11;41.13;;;18.65;;
59468;SDS011;45277;52.768;18.262;2022-09-09T07:47:46;34.13;;;18.42;;
59468;SDS011;45277;52.768;18.262;2022-09-09T07:49:18;34.08;;;18.90;;
59468;SDS011;45277;52.768;18.262;2022-09-09T07:50:50;37.88;;;17.75;;
59468;SDS011;45277;52.768;18.262;2022-09-09T07:52:22;36.63;;;17.58;;
59468;SDS011;45277;52.768;18.262;2022-09-09T07:54:01;38.38;;;19.02;;
59468;SDS011;45277;52.768;18.262;2022-09-09T07:55:38;36.90;;;18.05;;
59468;SDS011;45277;52.768;18.262;2022-09-09T07:57:11;35.15;;;17.75;;
59468;SDS011;45277;52.768;18.262;2022-09-09T07:58:46;36.90;;;19.25;;
59468;SDS011;45277;52.768;18.262;2022-09-09T08:00:22;39.10;;;19.83;;
59468;SDS011;45277;52.768;18.262;2022-09-09T08:02:12;39.05;;;18.88;;
59468;SDS011;45277;52.768;18.262;2022-09-09T08:03:51;36.65;;;18.33;;
59468;SDS011;45277;52.768;18.262;2022-09-09T08:05:40;43.83;;;20.70;;
59468;SDS011;45277;52.768;18.262;2022-09-09T08:07:12;41.58;;;19.30;;
59468;SDS011;45277;52.768;18.262;2022-09-09T08:08:49;43.83;;;20.13;;
59468;SDS011;45277;52.768;18.262;2022-09-09T08:10:23;40.55;;;20.08;;
59468;SDS011;45277;52.768;18.262;2022-09-09T08:11:56;43.30;;;19.77;;
59468;SDS011;45277;52.768;18.262;2022-09-09T08:13:30;46.28;;;20.17;;
59468;SDS011;45277;52.768;18.262;2022-09-09T08:15:02;41.33;;;18.65;;
59468;SDS011;45277;52.768;18.262;2022-09-09T08:16:37;38.88;;;17.90;;
59468;SDS011;45277;52.768;18.262;2022-09-09T08:18:24;34.90;;;18.88;;
59468;SDS011;45277;52.768;18.262;2022-09-09T08:19:58;36.50;;;19.77;;
59468;SDS011;45277;52.768;18.262;2022-09-09T08:21:36;35.35;;;19.05;;
59468;SDS011;45277;52.768;18.262;2022-09-09T08:23:19;40.92;;;19.10;;
59468;SDS011;45277;52.768;18.262;2022-09-09T08:24:59;40.47;;;19.58;;
59468;SDS011;45277;52.768;18.262;2022-09-09T08:26:35;37.03;;;18.83;;
59468;SDS011;45277;52.768;18.262;2022-09-09T08:28:09;39.25;;;20.38;;
59468;SDS011;45277;52.768;18.262;2022-09-09T08:29:43;38.92;;;18.80;;
59468;SDS011;45277;52.768;18.262;2022-09-09T08:31:17;35.80;;;19.05;;
59468;SDS011;45277;52.768;18.262;2022-09-09T08:32:53;55.55;;;21.08;;
59468;SDS011;45277;52.768;18.262;2022-09-09T08:34:29;172.68;;;34.70;;
59468;SDS011;45277;52.768;18.262;2022-09-09T08:36:08;85.78;;;26.20;;
59468;SDS011;45277;52.768;18.262;2022-09-09T08:37:42;50.67;;;23.95;;
59468;SDS011;45277;52.768;18.262;2022-09-09T08:39:18;58.47;;;24.02;;
59468;SDS011;45277;52.768;18.262;2022-09-09T08:40:53;58.80;;;25.30;;
59468;SDS011;45277;52.768;18.262;2022-09-09T08:42:58;54.45;;;24.10;;
59468;SDS011;45277;52.768;18.262;2022-09-09T08:44:39;54.22;;;25.35;;
59468;SDS011;45277;52.768;18.262;2022-09-09T08:46:42;50.00;;;24.40;;
59468;SDS011;45277;52.768;18.262;2022-09-09T08:53:38;62.40;;;24.48;;
59468;SDS011;45277;52.768;18.262;2022-09-09T08:56:51;57.47;;;26.48;;
59468;SDS011;45277;52.768;18.262;2022-09-09T08:58:29;48.00;;;21.98;;
59468;SDS011;45277;52.768;18.262;2022-09-09T09:00:13;50.17;;;24.08;;
59468;SDS011;45277;52.768;18.262;2022-09-09T09:01:53;48.95;;;24.25;;
59468;SDS011;45277;52.768;18.262;2022-09-09T09:06:21;44.72;;;23.27;;
59468;SDS011;45277;52.768;18.262;2022-09-09T09:11:48;56.83;;;30.63;;
59468;SDS011;45277;52.768;18.262;2022-09-09T09:15:09;56.72;;;27.92;;
59468;SDS011;45277;52.768;18.262;2022-09-09T09:16:51;53.40;;;26.55;;
59468;SDS011;45277;52.768;18.262;2022-09-09T09:22:22;55.92;;;27.17;;
59468;SDS011;45277;52.768;18.262;2022-09-09T09:26:21;77.97;;;35.25;;
59468;SDS011;45277;52.768;18.262;2022-09-09T09:29:37;81.95;;;37.67;;
59468;SDS011;45277;52.768;18.262;2022-09-09T09:31:13;67.90;;;33.30;;
59468;SDS011;45277;52.768;18.262;2022-09-09T09:32:52;78.93;;;35.88;;
59468;SDS011;45277;52.768;18.262;2022-09-09T09:34:38;75.80;;;37.17;;
59468;SDS011;45277;52.768;18.262;2022-09-09T09:36:14;91.85;;;38.80;;
59468;SDS011;45277;52.768;18.262;2022-09-09T09:37:46;85.50;;;38.83;;
59468;SDS011;45277;52.768;18.262;2022-09-09T09:39:26;88.45;;;39.72;;
59468;SDS011;45277;52.768;18.262;2022-09-09T09:41:08;92.10;;;41.88;;
59468;SDS011;45277;52.768;18.262;2022-09-09T09:44:31;78.57;;;39.33;;
59468;SDS011;45277;52.768;18.262;2022-09-09T09:46:04;76.13;;;37.47;;
59468;SDS011;45277;52.768;18.262;2022-09-09T09:47:37;65.90;;;33.13;;
59468;SDS011;45277;52.768;18.262;2022-09-09T09:49:15;62.47;;;33.22;;
59468;SDS011;45277;52.768;18.262;2022-09-09T09:52:38;65.22;;;35.10;;
59468;SDS011;45277;52.768;18.262;2022-09-09T09:54:17;64.30;;;33.47;;
59468;SDS011;45277;52.768;18.262;2022-09-09T09:55:59;57.10;;;31.02;;
59468;SDS011;45277;52.768;18.262;2022-09-09T09:57:32;59.95;;;30.33;;
59468;SDS011;45277;52.768;18.262;2022-09-09T09:59:19;57.30;;;32.75;;
59468;SDS011;45277;52.768;18.262;2022-09-09T10:01:22;57.15;;;30.23;;
59468;SDS011;45277;52.768;18.262;2022-09-09T10:03:23;53.35;;;30.27;;
59468;SDS011;45277;52.768;18.262;2022-09-09T10:05:04;50.10;;;30.52;;
59468;SDS011;45277;52.768;18.262;2022-09-09T10:06:52;46.70;;;28.40;;
59468;SDS011;45277;52.768;18.262;2022-09-09T10:08:27;40.83;;;25.33;;
59468;SDS011;45277;52.768;18.262;2022-09-09T10:10:00;43.80;;;26.42;;
59468;SDS011;45277;52.768;18.262;2022-09-09T10:13:15;50.40;;;28.90;;
59468;SDS011;45277;52.768;18.262;2022-09-09T10:22:25;48.90;;;28.67;;
59468;SDS011;45277;52.768;18.262;2022-09-09T10:31:49;30.05;;;21.27;;
59468;SDS011;45277;52.768;18.262;2022-09-09T10:33:55;36.67;;;24.23;;
59468;SDS011;45277;52.768;18.262;2022-09-09T10:35:49;36.85;;;22.75;;
59468;SDS011;45277;52.768;18.262;2022-09-09T10:39:37;38.60;;;22.92;;
59468;SDS011;45277;52.768;18.262;2022-09-09T10:41:37;44.17;;;23.52;;
59468;SDS011;45277;52.768;18.262;2022-09-09T10:53:37;49.28;;;28.92;;
59468;SDS011;45277;52.768;18.262;2022-09-09T10:55:51;44.95;;;27.83;;
59468;SDS011;45277;52.768;18.262;2022-09-09T10:57:37;41.38;;;27.88;;
59468;SDS011;45277;52.768;18.262;2022-09-09T10:59:20;46.38;;;26.83;;